Time;durP1;ratioP1;P1;durP2;ratioP2;P2;SDS_P1;SDS_P2;PMS_P1;PMS_P2;Temp;Humidity;BMP_temperature;BMP_pressure;BME280_temperature;BME280_humidity;BME280_pressure;Samples;Min_cycle;Max_cycle;Signal;HPM_P1;HPM_P2
2022/09/03 00:00:57;;;;;;;6.32;3.33;;;;;;;14.37;59.08;100978.81;5023232;28;20033;-66
2022/09/03 00:03:43;;;;;;;6.68;3.35;;;;;;;14.33;59.43;100973.75;5007308;28;20081;-65
2022/09/03 00:06:33;;;;;;;5.05;3.78;;;;;;;14.35;58.30;100982.66;5007677;28;20590;-66
2022/09/03 00:09:05;;;;;;;5.82;3.20;;;;;;;14.28;59.37;100980.47;5007617;28;20044;-66
2022/09/03 00:11:55;;;;;;;9.45;3.60;;;;;;;14.24;59.41;100973.53;5007868;28;20046;-66
2022/09/03 00:14:44;;;;;;;6.72;3.85;;;;;;;14.18;59.91;100976.78;5016791;28;20133;-65
2022/09/03 00:17:16;;;;;;;7.95;4.10;;;;;;;14.15;59.98;100973.44;4989939;28;20058;-66
2022/09/03 00:19:53;;;;;;;5.30;3.50;;;;;;;14.13;59.98;100975.41;5007297;28;20133;-66
2022/09/03 00:22:26;;;;;;;8.65;4.13;;;;;;;14.10;59.93;100976.56;5016267;28;20500;-66
2022/09/03 00:24:52;;;;;;;6.65;4.50;;;;;;;14.08;60.49;100978.56;5027342;28;20045;-66
2022/09/03 00:27:24;;;;;;;9.35;4.28;;;;;;;14.07;59.96;100971.34;5021490;28;20030;-65
2022/09/03 00:29:58;;;;;;;6.32;3.95;;;;;;;14.06;59.96;100977.81;5018656;28;20611;-69
2022/09/03 00:32:38;;;;;;;5.97;4.13;;;;;;;14.02;60.14;100971.75;5026729;28;20536;-66
2022/09/03 00:35:13;;;;;;;5.57;3.90;;;;;;;14.01;60.14;100978.22;5027202;28;20080;-67
2022/09/03 00:37:39;;;;;;;6.75;4.00;;;;;;;13.97;60.49;100978.59;5026530;28;20056;-66
2022/09/03 00:40:14;;;;;;;8.75;4.20;;;;;;;13.94;60.80;100967.91;5026525;28;20091;-66
2022/09/03 00:43:14;;;;;;;8.30;4.15;;;;;;;13.94;60.12;100971.53;5025789;28;20047;-66
2022/09/03 00:46:04;;;;;;;5.50;3.85;;;;;;;13.90;60.66;100978.28;5025921;28;20041;-69
2022/09/03 00:48:40;;;;;;;9.48;4.63;;;;;;;13.85;61.85;100972.31;5006793;28;20489;-66
2022/09/03 00:51:28;;;;;;;9.32;4.80;;;;;;;13.76;61.75;100979.44;5016208;28;20041;-65
2022/09/03 00:54:03;;;;;;;7.88;4.40;;;;;;;13.72;61.64;100975.22;5026459;28;20132;-67
2022/09/03 00:56:54;;;;;;;6.75;4.05;;;;;;;13.71;60.64;100978.09;5007374;28;20061;-66
2022/09/03 00:59:35;;;;;;;14.40;5.07;;;;;;;13.66;61.26;100973.00;5014714;28;20489;-66
2022/09/03 01:02:20;;;;;;;9.18;4.53;;;;;;;13.66;61.75;100973.00;5016439;28;20041;-67
2022/09/03 01:04:57;;;;;;;7.13;4.32;;;;;;;13.66;61.63;100973.00;5007206;28;20060;-66
2022/09/03 01:07:26;;;;;;;7.50;4.15;;;;;;;13.63;62.11;100967.78;5007309;28;20812;-65
2022/09/03 01:10:06;;;;;;;6.60;4.18;;;;;;;13.61;61.94;100971.63;5025729;28;20503;-65
2022/09/03 01:13:04;;;;;;;9.65;4.57;;;;;;;13.54;61.80;100976.75;5028277;28;20559;-66
2022/09/03 01:15:45;;;;;;;5.82;4.18;;;;;;;13.49;62.09;100976.25;5028412;28;20029;-66
2022/09/03 01:18:27;;;;;;;5.43;4.03;;;;;;;13.48;62.08;100974.53;5010774;28;20061;-66
2022/09/03 01:21:33;;;;;;;9.80;4.60;;;;;;;13.43;61.87;100963.97;5011051;28;20034;-65
2022/09/03 01:24:18;;;;;;;9.23;3.83;;;;;;;13.37;62.13;100961.72;5025704;28;20072;-66
2022/09/03 01:27:22;;;;;;;5.68;4.15;;;;;;;13.34;62.17;100967.47;5013631;28;20448;-66
2022/09/03 01:30:02;;;;;;;6.32;4.35;;;;;;;13.27;63.19;100972.53;5025699;28;20038;-66
2022/09/03 01:32:41;;;;;;;7.45;4.78;;;;;;;13.23;63.94;100970.19;5009038;28;20686;-66
2022/09/03 01:35:07;;;;;;;6.55;4.13;;;;;;;13.20;63.48;100970.41;5010736;28;20034;-65
2022/09/03 01:37:52;;;;;;;5.63;4.72;;;;;;;13.23;62.48;100972.91;5011006;28;20418;-67
2022/09/03 01:40:35;;;;;;;5.43;3.83;;;;;;;13.17;63.82;100967.94;5011143;28;20045;-66
2022/09/03 01:43:01;;;;;;;8.20;4.38;;;;;;;13.16;63.65;100972.53;5010475;28;20409;-66
2022/09/03 01:45:42;;;;;;;4.43;4.00;;;;;;;13.11;63.50;100966.56;5026046;28;20041;-66
2022/09/03 01:48:20;;;;;;;7.78;4.70;;;;;;;13.06;64.70;100966.06;5029417;28;20061;-67
2022/09/03 01:51:10;;;;;;;6.40;4.47;;;;;;;13.00;63.50;100966.56;5028715;28;20037;-67
2022/09/03 01:54:11;;;;;;;7.90;4.28;;;;;;;12.99;63.92;100964.81;5046991;28;20088;-66
2022/09/03 01:57:05;;;;;;;5.65;3.88;;;;;;;12.99;63.39;100970.28;5049999;28;20059;-66
2022/09/03 01:59:36;;;;;;;5.78;4.28;;;;;;;12.96;64.15;100968.69;5031220;28;20022;-66
2022/09/03 02:02:18;;;;;;;9.82;4.07;;;;;;;12.95;63.89;100969.66;5029348;28;20033;-66
2022/09/03 02:04:58;;;;;;;7.23;3.83;;;;;;;12.96;63.93;100965.97;5028244;28;20050;-66
2022/09/03 02:07:32;;;;;;;7.20;4.28;;;;;;;12.94;64.67;100965.19;5028130;28;20033;-67
2022/09/03 02:09:59;;;;;;;6.03;4.15;;;;;;;12.93;64.06;100963.47;5010107;28;20046;-66
2022/09/03 02:12:27;;;;;;;6.65;3.97;;;;;;;12.98;64.31;100971.28;5024619;28;20051;-66
2022/09/03 02:14:54;;;;;;;6.60;3.88;;;;;;;13.00;64.29;100974.75;5026765;28;20042;-66
2022/09/03 02:17:20;;;;;;;5.25;4.10;;;;;;;13.01;64.05;100974.66;5014217;28;20037;-66
2022/09/03 02:19:46;;;;;;;6.38;3.90;;;;;;;13.03;64.49;100972.66;5031673;28;20492;-66
2022/09/03 02:22:12;;;;;;;6.43;3.97;;;;;;;12.97;64.09;100962.22;5030920;28;20033;-66
2022/09/03 02:24:37;;;;;;;4.47;3.70;;;;;;;12.95;64.81;100956.00;5029219;28;20045;-67
2022/09/03 02:27:03;;;;;;;4.35;3.72;;;;;;;12.90;64.57;100958.22;5041891;28;20037;-66
2022/09/03 02:29:29;;;;;;;4.18;3.78;;;;;;;12.86;64.60;100955.88;5039946;28;20059;-66
2022/09/03 02:31:56;;;;;;;6.22;3.83;;;;;;;12.81;64.98;100961.69;5027675;28;20507;-66
2022/09/03 02:34:22;;;;;;;7.72;3.60;;;;;;;12.80;65.22;100964.56;5027675;28;20489;-66
2022/09/03 02:36:47;;;;;;;6.15;4.22;;;;;;;12.80;65.51;100961.84;5019811;28;20034;-66
2022/09/03 02:39:14;;;;;;;6.97;3.70;;;;;;;12.75;65.45;100956.75;5009446;28;20470;-66
2022/09/03 02:41:40;;;;;;;5.13;3.95;;;;;;;12.73;64.47;100967.78;5009377;28;20041;-66
2022/09/03 02:44:16;;;;;;;5.30;3.90;;;;;;;12.76;65.18;100961.19;5009981;28;20042;-66
2022/09/03 02:46:50;;;;;;;4.32;3.92;;;;;;;12.71;65.83;100956.09;5016611;28;20043;-66
2022/09/03 02:49:16;;;;;;;5.40;3.70;;;;;;;12.66;65.80;100958.34;5029130;28;20060;-66
2022/09/03 02:51:42;;;;;;;4.40;3.58;;;;;;;12.65;65.57;100958.47;5027722;28;20587;-66
2022/09/03 02:54:09;;;;;;;8.20;4.03;;;;;;;12.64;66.23;100956.75;5028372;28;20038;-65
2022/09/03 02:56:35;;;;;;;13.43;3.83;;;;;;;12.63;65.90;100964.03;5027762;28;20180;-66
2022/09/03 02:59:02;;;;;;;5.22;3.63;;;;;;;12.62;66.05;100962.31;5028022;28;20732;-67
2022/09/03 03:01:28;;;;;;;4.55;3.50;;;;;;;12.64;66.10;100967.66;5023580;28;20460;-66
2022/09/03 03:03:53;;;;;;;5.20;4.20;;;;;;;12.58;67.05;100963.53;5008445;28;20046;-67
2022/09/03 03:06:22;;;;;;;7.82;4.57;;;;;;;12.50;67.50;100963.28;5017295;28;20420;-66
2022/09/03 03:08:49;;;;;;;8.45;4.13;;;;;;;12.42;66.67;100952.97;5029205;28;20504;-66
2022/09/03 03:11:18;;;;;;;6.20;3.42;;;;;;;12.39;67.15;100964.09;5028723;28;20457;-67
2022/09/03 03:13:45;;;;;;;5.75;4.32;;;;;;;12.39;66.63;100957.78;5026611;28;20033;-65
2022/09/03 03:16:12;;;;;;;6.35;3.30;;;;;;;12.40;66.52;100954.97;5011793;28;20053;-66
2022/09/03 03:18:38;;;;;;;6.80;3.55;;;;;;;12.42;66.79;100955.69;5028081;28;20037;-66
2022/09/03 03:21:11;;;;;;;4.93;3.47;;;;;;;12.43;66.32;100954.69;5023537;28;20033;-66
2022/09/03 03:23:38;;;;;;;6.53;3.67;;;;;;;12.47;66.33;100960.78;5026896;28;20088;-66
2022/09/03 03:26:06;;;;;;;9.23;3.97;;;;;;;12.48;66.55;100957.94;5026543;28;20668;-66
2022/09/03 03:28:32;;;;;;;4.47;3.38;;;;;;;12.42;67.48;100961.16;5027730;28;20037;-68
2022/09/03 03:31:07;;;;;;;6.72;3.85;;;;;;;12.41;66.50;100958.56;5027188;28;20041;-66
2022/09/03 03:33:33;;;;;;;4.10;3.10;;;;;;;12.39;66.59;100960.50;5027798;28;20034;-66
2022/09/03 03:36:21;;;;;;;8.85;3.55;;;;;;;12.34;66.28;100960.88;5027499;28;20048;-66
2022/09/03 03:38:47;;;;;;;4.57;3.60;;;;;;;12.34;66.51;100962.72;5028052;28;20036;-66
2022/09/03 03:41:16;;;;;;;4.20;3.20;;;;;;;12.30;67.57;100961.22;5028017;28;20041;-67
2022/09/03 03:43:42;;;;;;;4.75;3.75;;;;;;;12.24;67.70;100958.00;5019091;28;20070;-68
2022/09/03 03:46:09;;;;;;;4.03;3.20;;;;;;;12.18;68.35;100961.22;5010578;28;20120;-66
2022/09/03 03:48:34;;;;;;;7.72;3.70;;;;;;;12.17;67.18;100962.19;5027437;28;20456;-66
2022/09/03 03:51:03;;;;;;;5.10;3.40;;;;;;;12.19;67.29;100957.47;5026723;28;20067;-66
2022/09/03 03:53:29;;;;;;;7.30;4.00;;;;;;;12.20;68.01;100952.91;5027609;28;20045;-66
2022/09/03 03:56:00;;;;;;;6.47;3.17;;;;;;;12.15;68.75;100955.97;5027309;28;20047;-66
2022/09/03 03:58:27;;;;;;;4.43;3.45;;;;;;;12.15;68.90;100963.28;5027563;28;20120;-66
2022/09/03 04:00:53;;;;;;;5.43;2.88;;;;;;;12.16;67.97;100951.38;5025073;28;20493;-65
2022/09/03 04:03:19;;;;;;;5.95;3.10;;;;;;;12.20;67.01;100961.94;5027570;28;20091;-66
2022/09/03 04:05:55;;;;;;;4.45;3.25;;;;;;;12.22;68.14;100953.66;5027138;28;20428;-66
2022/09/03 04:08:21;;;;;;;5.07;3.50;;;;;;;12.22;67.85;100950.94;5027651;28;20558;-69
2022/09/03 04:10:46;;;;;;;3.10;2.80;;;;;;;12.27;67.39;100958.75;5027632;28;20139;-65
2022/09/03 04:13:11;;;;;;;5.43;3.15;;;;;;;12.27;68.27;100959.63;5027491;28;20069;-66
2022/09/03 04:15:37;;;;;;;7.65;3.33;;;;;;;12.27;69.05;100956.03;5026460;28;20030;-66
2022/09/03 04:18:03;;;;;;;4.80;3.50;;;;;;;12.24;68.74;100954.41;5026483;28;20036;-67
2022/09/03 04:20:28;;;;;;;6.57;3.47;;;;;;;12.22;68.11;100964.56;5027501;28;20073;-66
2022/09/03 04:22:53;;;;;;;6.57;3.30;;;;;;;12.26;68.63;100949.69;5025381;28;20654;-66
2022/09/03 04:25:19;;;;;;;5.25;3.35;;;;;;;12.24;67.97;100957.13;5027835;28;20557;-66
2022/09/03 04:27:44;;;;;;;6.10;3.17;;;;;;;12.24;68.15;100952.53;5026720;28;20681;-66
2022/09/03 04:30:10;;;;;;;4.53;3.50;;;;;;;12.24;67.87;100952.53;5026264;28;20412;-66
2022/09/03 04:32:56;;;;;;;5.05;3.20;;;;;;;12.22;67.75;100943.63;5026284;28;20030;-66
2022/09/03 04:35:24;;;;;;;3.97;3.03;;;;;;;12.23;68.09;100947.22;5027293;28;20060;-70
2022/09/03 04:37:50;;;;;;;4.60;3.00;;;;;;;12.21;68.31;100958.22;5027132;28;20053;-66
2022/09/03 04:40:16;;;;;;;4.57;3.00;;;;;;;12.22;67.77;100954.53;5027153;28;20070;-67
2022/09/03 04:42:42;;;;;;;6.80;3.17;;;;;;;12.22;68.32;100943.63;5027077;28;20407;-66
2022/09/03 04:45:08;;;;;;;7.60;2.95;;;;;;;12.21;67.56;100946.44;5030948;28;20043;-66
2022/09/03 04:47:36;;;;;;;4.13;3.00;;;;;;;12.18;68.30;100942.13;5031705;28;20404;-65
2022/09/03 04:50:01;;;;;;;5.35;3.35;;;;;;;12.19;68.76;100948.44;5026685;28;20037;-69
2022/09/03 04:52:30;;;;;;;4.30;3.10;;;;;;;12.16;67.79;100945.94;5016452;28;20400;-67
2022/09/03 04:54:55;;;;;;;7.28;3.65;;;;;;;12.19;67.81;100956.63;5027002;28;20489;-66
2022/09/03 04:57:21;;;;;;;5.15;2.80;;;;;;;12.21;67.00;100955.50;5026594;28;20033;-69
2022/09/03 04:59:47;;;;;;;4.88;2.85;;;;;;;12.27;67.41;100959.63;5018049;28;20319;-66
2022/09/03 05:02:14;;;;;;;5.45;2.60;;;;;;;12.25;67.52;100957.00;5017911;28;20037;-66
2022/09/03 05:04:40;;;;;;;6.63;3.10;;;;;;;12.21;67.73;100958.22;5026250;28;20521;-66
2022/09/03 05:07:06;;;;;;;5.32;3.30;;;;;;;12.23;67.10;100952.66;5026846;28;20545;-66
2022/09/03 05:09:31;;;;;;;5.00;2.78;;;;;;;12.22;67.25;100959.97;5026358;28;20128;-66
2022/09/03 05:11:57;;;;;;;5.43;3.15;;;;;;;12.23;68.54;100955.41;5007662;28;20030;-69
2022/09/03 05:14:22;;;;;;;4.40;2.70;;;;;;;12.24;67.81;100952.53;5012900;28;20460;-66
2022/09/03 05:16:47;;;;;;;4.00;3.00;;;;;;;12.27;68.22;100947.84;5020241;28;20087;-66
2022/09/03 05:19:13;;;;;;;4.90;2.88;;;;;;;12.30;68.07;100955.78;5006703;28;20034;-66
2022/09/03 05:21:38;;;;;;;4.68;2.92;;;;;;;12.32;68.02;100959.28;5007846;28;20036;-65
2022/09/03 05:24:04;;;;;;;4.95;2.75;;;;;;;12.30;68.51;100951.19;5026138;28;20037;-66
2022/09/03 05:26:32;;;;;;;5.05;2.90;;;;;;;12.31;68.66;100954.78;5026787;28;20055;-66
2022/09/03 05:29:00;;;;;;;3.28;2.80;;;;;;;12.34;68.49;100957.28;5023981;28;20393;-66
2022/09/03 05:31:28;;;;;;;4.38;2.97;;;;;;;12.34;68.36;100949.97;5011044;28;20034;-66
2022/09/03 05:33:57;;;;;;;3.13;2.85;;;;;;;12.39;67.67;100946.88;5026125;28;20100;-65
2022/09/03 05:36:24;;;;;;;6.65;2.60;;;;;;;12.41;67.49;100955.81;5026604;28;20456;-66
2022/09/03 05:38:52;;;;;;;4.55;3.63;;;;;;;12.41;68.20;100953.09;5027179;28;20049;-65
2022/09/03 05:41:19;;;;;;;4.47;2.83;;;;;;;12.43;68.34;100951.97;5026663;28;20596;-66
2022/09/03 05:43:51;;;;;;;3.88;2.92;;;;;;;12.44;68.36;100950.97;5024197;28;20042;-66
2022/09/03 05:46:17;;;;;;;5.15;3.22;;;;;;;12.47;68.16;100950.75;5009937;28;20041;-66
2022/09/03 05:48:43;;;;;;;6.85;3.00;;;;;;;12.50;68.21;100950.50;5026027;28;20083;-66
2022/09/03 05:51:15;;;;;;;6.50;2.80;;;;;;;12.54;68.00;100947.50;5026503;28;20424;-66
2022/09/03 05:53:42;;;;;;;6.35;3.00;;;;;;;12.59;67.94;100956.22;5025707;28;20116;-66
2022/09/03 05:56:10;;;;;;;5.55;3.05;;;;;;;12.62;68.04;100955.97;5026539;28;20037;-66
2022/09/03 05:58:39;;;;;;;3.50;2.72;;;;;;;12.64;68.21;100954.88;5027509;28;20042;-68
2022/09/03 06:01:16;;;;;;;4.13;2.85;;;;;;;12.68;69.01;100948.19;5029126;28;20401;-66
2022/09/03 06:03:44;;;;;;;6.05;3.08;;;;;;;12.77;68.22;100949.28;5029293;28;20058;-67
2022/09/03 06:06:10;;;;;;;5.60;3.58;;;;;;;12.82;67.45;100955.25;5028736;28;20069;-66
2022/09/03 06:08:38;;;;;;;5.85;2.80;;;;;;;12.92;66.54;100958.13;5011974;28;20042;-66
2022/09/03 06:11:05;;;;;;;4.07;3.30;;;;;;;13.06;66.67;100963.34;5010028;28;20034;-66
2022/09/03 06:13:32;;;;;;;3.97;3.17;;;;;;;13.20;66.25;100956.75;5017045;28;20522;-66
2022/09/03 06:15:59;;;;;;;6.03;3.67;;;;;;;13.35;66.90;100966.47;5027081;28;20083;-67
2022/09/03 06:18:28;;;;;;;4.82;3.20;;;;;;;13.48;67.76;100961.72;5029245;28;20069;-65
2022/09/03 06:20:59;;;;;;;3.97;3.33;;;;;;;13.63;69.39;100967.78;5024437;28;20075;-66
2022/09/03 06:23:26;;;;;;;8.55;3.58;;;;;;;13.78;68.60;100965.63;5041548;28;20091;-66
2022/09/03 06:26:07;;;;;;;7.00;4.00;;;;;;;13.92;69.25;100962.59;5048393;28;20037;-66
2022/09/03 06:28:35;;;;;;;6.80;3.67;;;;;;;14.08;69.59;100964.00;5028937;28;20052;-66
2022/09/03 06:31:02;;;;;;;3.78;3.42;;;;;;;14.21;68.61;100960.09;5027867;28;20124;-66
2022/09/03 06:33:29;;;;;;;6.30;4.13;;;;;;;14.38;68.11;100963.25;5009230;28;20041;-66
2022/09/03 06:35:56;;;;;;;5.03;3.75;;;;;;;14.53;69.00;100962.81;5009596;28;20123;-66
2022/09/03 06:38:24;;;;;;;7.28;4.32;;;;;;;14.69;70.82;100962.34;5020963;28;20099;-66
2022/09/03 06:40:57;;;;;;;8.80;4.45;;;;;;;14.84;70.24;100959.25;5029827;28;20513;-67
2022/09/03 06:43:22;;;;;;;7.40;3.75;;;;;;;14.99;67.17;100958.75;5029039;28;20045;-66
2022/09/03 06:45:55;;;;;;;8.95;3.78;;;;;;;15.20;69.49;100960.56;5039861;28;20087;-67
2022/09/03 06:48:20;;;;;;;;;;;;;;;15.35;66.79;100958.34;5029287;28;20132;-66
2022/09/03 06:50:56;;;;;;;6.00;4.18;;;;;;;15.58;66.96;100959.84;5028972;28;20024;-66
2022/09/03 06:53:26;;;;;;;4.93;3.75;;;;;;;15.80;63.06;100961.47;5029354;28;20052;-69
2022/09/03 06:55:56;;;;;;;11.30;4.50;;;;;;;16.01;65.00;100967.72;5028972;28;20046;-67
2022/09/03 06:58:22;;;;;;;11.13;4.72;;;;;;;16.20;62.34;100966.00;5029392;28;20041;-66
2022/09/03 07:00:48;;;;;;;7.93;3.90;;;;;;;16.33;60.80;100961.09;5028589;28;20037;-66
2022/09/03 07:03:16;;;;;;;9.15;4.00;;;;;;;16.52;61.78;100960.22;5008607;28;20517;-66
2022/09/03 07:05:43;;;;;;;6.90;4.10;;;;;;;16.66;59.19;100958.88;5008987;28;20496;-67
2022/09/03 07:08:09;;;;;;;8.90;4.32;;;;;;;16.77;58.66;100964.22;5008970;28;20048;-65
2022/09/03 07:10:37;;;;;;;9.60;4.47;;;;;;;16.88;58.30;100969.56;5018679;28;20500;-67
2022/09/03 07:13:07;;;;;;;7.40;4.35;;;;;;;16.96;56.23;100964.16;5028603;28;20406;-65
2022/09/03 07:15:32;;;;;;;9.85;4.60;;;;;;;17.03;56.46;100965.31;5027542;28;20099;-66
2022/09/03 07:17:58;;;;;;;9.30;4.90;;;;;;;17.08;55.82;100968.47;5012083;28;20481;-67
2022/09/03 07:20:24;;;;;;;7.97;4.97;;;;;;;17.09;55.52;100961.94;5008651;28;20026;-66
2022/09/03 07:22:49;;;;;;;14.00;5.15;;;;;;;17.13;57.90;100962.53;5020992;28;20060;-66
2022/09/03 07:25:14;;;;;;;10.27;4.57;;;;;;;17.14;60.53;100964.25;5023404;28;20057;-66
2022/09/03 07:27:40;;;;;;;10.48;4.75;;;;;;;17.17;58.97;100965.84;5008519;28;20077;-66
2022/09/03 07:30:08;;;;;;;7.95;4.30;;;;;;;17.16;57.75;100964.09;5019613;28;20018;-66
2022/09/03 07:32:37;;;;;;;8.45;5.03;;;;;;;17.09;59.52;100964.69;5027239;28;20045;-66
2022/09/03 07:35:03;;;;;;;9.95;5.38;;;;;;;17.01;60.87;100969.22;5028201;28;20493;-66
2022/09/03 07:37:29;;;;;;;13.70;5.70;;;;;;;16.98;59.11;100969.53;5027563;28;20087;-66
2022/09/03 07:39:54;;;;;;;12.40;5.32;;;;;;;16.99;60.02;100966.63;5028178;28;20041;-66
2022/09/03 07:42:19;;;;;;;11.52;5.22;;;;;;;17.04;60.45;100968.94;5024698;28;20123;-66
2022/09/03 07:44:45;;;;;;;25.02;6.70;;;;;;;17.16;57.33;100966.84;5016339;28;20487;-66
2022/09/03 07:47:11;;;;;;;12.77;6.10;;;;;;;17.26;57.08;100973.19;5027426;28;20481;-65
2022/09/03 07:49:36;;;;;;;11.43;6.50;;;;;;;17.41;54.52;100974.41;5027502;28;20037;-65
2022/09/03 07:52:02;;;;;;;15.73;6.55;;;;;;;17.53;55.20;100970.44;5030715;28;20127;-66
2022/09/03 07:54:27;;;;;;;11.13;6.10;;;;;;;17.62;56.99;100981.53;5047656;28;20025;-66
2022/09/03 07:56:52;;;;;;;13.77;6.05;;;;;;;17.65;56.91;100981.22;5032496;28;20033;-66
2022/09/03 07:59:19;;;;;;;13.82;6.00;;;;;;;17.66;57.07;100971.94;5027280;28;20093;-66
2022/09/03 08:01:44;;;;;;;14.23;6.78;;;;;;;17.76;54.03;100972.78;5025818;28;20116;-66
2022/09/03 08:04:10;;;;;;;13.93;6.00;;;;;;;17.85;56.17;100978.22;5027504;28;20132;-66
2022/09/03 08:06:36;;;;;;;23.35;6.68;;;;;;;17.93;57.17;100971.09;5027629;28;20497;-66
2022/09/03 08:09:05;;;;;;;14.82;6.70;;;;;;;18.01;56.60;100977.56;5011311;28;20044;-66
2022/09/03 08:11:33;;;;;;;11.32;6.28;;;;;;;18.18;53.11;100973.06;5007832;28;20068;-66
2022/09/03 08:14:05;;;;;;;17.50;6.47;;;;;;;18.39;52.26;100977.41;5015190;28;20042;-66
2022/09/03 08:16:40;;;;;;;10.40;6.35;;;;;;;18.53;51.86;100974.06;5025772;28;20037;-65
2022/09/03 08:19:06;;;;;;;11.93;6.15;;;;;;;18.66;50.81;100973.66;5027122;28;20400;-65
2022/09/03 08:21:31;;;;;;;15.98;6.25;;;;;;;18.76;51.59;100977.22;5027022;28;20025;-67
2022/09/03 08:24:02;;;;;;;22.83;6.57;;;;;;;18.83;51.47;100972.78;5014267;28;20034;-68
2022/09/03 08:26:30;;;;;;;9.30;5.75;;;;;;;18.97;51.65;100980.44;5007757;28;20041;-67
2022/09/03 08:28:56;;;;;;;13.15;5.85;;;;;;;19.16;52.42;100986.75;5008077;28;20052;-65
2022/09/03 08:31:23;;;;;;;11.55;5.50;;;;;;;19.32;50.45;100979.44;5010673;28;20041;-66
2022/09/03 08:33:53;;;;;;;8.07;3.50;;;;;;;19.49;50.29;100982.28;5027469;28;20536;-66
2022/09/03 08:36:29;;;;;;;10.60;3.30;;;;;;;19.68;50.05;100981.19;5028113;28;20022;-67
2022/09/03 08:38:56;;;;;;;6.57;2.70;;;;;;;19.84;48.41;100982.09;5026693;28;20059;-65
2022/09/03 08:41:57;;;;;;;7.60;3.33;;;;;;;20.02;49.71;100978.34;5006694;28;20474;-65
2022/09/03 08:44:27;;;;;;;3.33;2.50;;;;;;;20.13;46.88;100983.53;5022418;28;20033;-67
2022/09/03 08:46:56;;;;;;;3.83;2.42;;;;;;;20.24;47.11;100987.91;5026042;28;20111;-66
2022/09/03 08:49:28;;;;;;;6.35;2.58;;;;;;;20.31;48.18;100987.03;5026855;28;20053;-69
2022/09/03 08:51:56;;;;;;;6.15;2.75;;;;;;;20.37;47.34;100991.00;5025306;28;20073;-66
2022/09/03 08:54:26;;;;;;;3.78;1.95;;;;;;;20.45;48.26;100985.47;5026109;28;20128;-65
2022/09/03 08:56:53;;;;;;;4.97;1.92;;;;;;;20.63;48.40;100988.97;5027284;28;20051;-65
2022/09/03 08:59:20;;;;;;;6.05;1.75;;;;;;;20.88;47.40;100988.94;5026704;28;20503;-66
2022/09/03 09:02:01;;;;;;;7.40;2.42;;;;;;;21.10;46.52;100993.75;5026330;28;20037;-66
2022/09/03 09:04:45;;;;;;;4.47;1.60;;;;;;;21.47;47.40;100992.31;5026354;28;20049;-65
2022/09/03 09:07:41;;;;;;;4.60;1.92;;;;;;;21.66;46.00;100985.47;5010766;28;20044;-66
2022/09/03 09:10:13;;;;;;;5.90;2.25;;;;;;;22.12;46.11;100994.78;5007093;28;20486;-66
2022/09/03 09:12:48;;;;;;;;;;;;;;;22.41;47.83;100987.66;5007500;28;20489;-66
2022/09/03 09:15:45;;;;;;;6.13;1.90;;;;;;;22.86;45.21;100980.34;5018656;28;19994;-66
2022/09/03 09:18:33;;;;;;;4.15;2.00;;;;;;;23.31;44.97;100984.91;5025678;28;20168;-66
2022/09/03 09:21:06;;;;;;;5.00;2.00;;;;;;;23.88;43.84;100988.94;5026744;28;20087;-66
2022/09/03 09:23:42;;;;;;;10.02;1.70;;;;;;;24.11;41.11;100992.41;5021773;28;20076;-66
2022/09/03 09:26:11;;;;;;;5.47;1.63;;;;;;;24.33;41.50;100986.84;5006379;28;20084;-66
2022/09/03 09:28:38;;;;;;;4.75;2.28;;;;;;;24.45;38.92;100988.09;5006875;28;20038;-66
2022/09/03 09:31:11;;;;;;;4.38;1.65;;;;;;;24.32;39.62;100983.22;5007530;28;20034;-68
2022/09/03 09:33:37;;;;;;;3.67;1.60;;;;;;;24.34;39.05;100983.91;5008377;28;20046;-66
2022/09/03 09:36:07;;;;;;;5.75;1.92;;;;;;;24.42;38.92;100974.56;5010640;28;20037;-65
2022/09/03 09:38:36;;;;;;;3.40;1.75;;;;;;;24.69;38.63;100982.13;5024681;28;20026;-66
2022/09/03 09:41:13;;;;;;;5.53;1.80;;;;;;;24.89;39.04;100975.84;5011230;28;20052;-66
2022/09/03 09:43:39;;;;;;;2.83;1.90;;;;;;;25.13;39.30;100981.03;5027182;28;20037;-66
2022/09/03 09:46:22;;;;;;;4.20;2.47;;;;;;;25.10;38.04;100975.00;5011524;28;20052;-66
2022/09/03 09:48:55;;;;;;;3.88;2.10;;;;;;;25.11;38.05;100973.91;5008812;28;20045;-67
2022/09/03 09:51:29;;;;;;;4.10;1.70;;;;;;;25.37;38.89;100978.81;5011087;28;20038;-65
2022/09/03 09:54:18;;;;;;;2.72;1.60;;;;;;;26.00;39.85;100987.06;5010800;28;20045;-66
2022/09/03 09:56:45;;;;;;;2.35;1.60;;;;;;;26.35;34.76;100983.09;5009224;28;20092;-67
2022/09/03 09:59:14;;;;;;;4.57;2.05;;;;;;;26.35;35.85;100988.69;5013318;28;20033;-66
2022/09/03 10:01:44;;;;;;;4.82;1.73;;;;;;;26.28;35.16;100984.16;5028330;28;20053;-66
2022/09/03 10:04:21;;;;;;;3.20;1.58;;;;;;;26.34;36.48;100984.16;5029428;28;20549;-65
2022/09/03 10:06:55;;;;;;;4.28;2.00;;;;;;;26.86;37.72;100981.66;5029447;28;20037;-66
2022/09/03 10:09:24;;;;;;;3.53;1.80;;;;;;;27.16;33.43;100976.53;5030506;28;20524;-66
2022/09/03 10:11:56;;;;;;;5.43;1.95;;;;;;;27.01;33.49;100985.09;5028801;28;20041;-66
2022/09/03 10:14:35;;;;;;;5.80;2.28;;;;;;;27.18;34.80;100980.81;5029217;28;20052;-70
2022/09/03 10:17:15;;;;;;;7.80;2.00;;;;;;;27.10;34.50;100969.03;5029321;28;20108;-66
2022/09/03 10:20:26;;;;;;;3.92;2.30;;;;;;;27.32;35.59;100970.47;5029399;28;20083;-66
2022/09/03 10:22:58;;;;;;;4.07;1.80;;;;;;;27.36;33.99;100962.50;5030153;28;20034;-66
2022/09/03 10:25:52;;;;;;;3.65;2.00;;;;;;;27.73;34.31;100969.31;5029090;28;20404;-66
2022/09/03 10:28:22;;;;;;;4.55;2.00;;;;;;;28.04;33.52;100962.06;5029839;28;20099;-65
2022/09/03 10:31:22;;;;;;;3.22;1.75;;;;;;;28.11;33.72;100963.72;5029323;28;20049;-65
2022/09/03 10:34:11;;;;;;;2.60;1.83;;;;;;;28.00;33.59;100960.81;5010463;28;20103;-68
2022/09/03 10:37:03;;;;;;;5.43;2.25;;;;;;;28.15;33.86;100956.59;5029599;28;20049;-66
2022/09/03 10:39:53;;;;;;;7.33;2.80;;;;;;;27.86;32.86;100958.06;5028340;28;20149;-66
2022/09/03 10:42:32;;;;;;;4.45;1.95;;;;;;;27.80;33.42;100958.97;5029915;28;20327;-66
2022/09/03 10:45:31;;;;;;;10.32;2.60;;;;;;;28.15;34.21;100961.34;5027745;28;20033;-66
2022/09/03 10:48:12;;;;;;;8.88;2.10;;;;;;;28.54;31.79;100959.41;5028486;28;20037;-65
2022/09/03 10:50:49;;;;;;;3.47;1.85;;;;;;;28.80;32.58;100961.13;5029193;28;20034;-65
2022/09/03 10:53:39;;;;;;;4.38;1.80;;;;;;;29.12;32.66;100960.00;5028961;28;20432;-65
2022/09/03 10:56:32;;;;;;;6.90;2.30;;;;;;;29.31;31.66;100960.03;5028532;28;20033;-65
2022/09/03 10:59:06;;;;;;;3.10;1.88;;;;;;;28.92;31.13;100956.50;5017821;28;20512;-66
2022/09/03 11:02:14;;;;;;;4.82;2.17;;;;;;;29.13;31.93;100953.31;5026274;28;20029;-65
2022/09/03 11:04:55;;;;;;;7.95;2.10;;;;;;;29.01;29.68;100955.16;5023728;28;20045;-65
2022/09/03 11:07:24;;;;;;;6.85;2.88;;;;;;;29.17;30.68;100960.16;5017260;28;20053;-66
2022/09/03 11:09:57;;;;;;;8.73;3.22;;;;;;;29.20;30.96;100951.31;5028197;28;20051;-67
2022/09/03 11:12:36;;;;;;;5.40;2.08;;;;;;;29.64;31.02;100956.88;5029244;28;20037;-65
2022/09/03 11:15:04;;;;;;;10.45;3.00;;;;;;;29.52;29.07;100955.91;5017871;28;20048;-65
2022/09/03 11:17:52;;;;;;;11.15;4.05;;;;;;;29.23;30.99;100955.56;5019450;28;20091;-65
2022/09/03 11:20:20;;;;;;;9.48;3.90;;;;;;;29.02;29.69;100945.66;5028659;28;20086;-65
2022/09/03 11:22:49;;;;;;;8.77;3.30;;;;;;;29.15;30.12;100955.91;5028598;28;20073;-65
2022/09/03 11:25:18;;;;;;;6.60;3.38;;;;;;;28.98;29.55;100953.66;5026817;28;20067;-65
2022/09/03 11:28:18;;;;;;;7.25;2.92;;;;;;;28.79;31.04;100953.81;5028433;28;20044;-66
2022/09/03 11:31:17;;;;;;;9.05;3.03;;;;;;;29.04;31.07;100948.22;5027542;28;20049;-66
2022/09/03 11:33:50;;;;;;;5.55;3.35;;;;;;;29.38;31.13;100947.66;5028167;28;20040;-66
2022/09/03 11:36:28;;;;;;;7.80;4.70;;;;;;;29.62;29.40;100945.91;5028336;28;20473;-65
2022/09/03 11:38:53;;;;;;;9.50;3.65;;;;;;;29.71;29.34;100940.84;5026973;28;20041;-67
2022/09/03 11:41:25;;;;;;;9.85;2.88;;;;;;;29.81;31.11;100943.09;5027119;28;20025;-65
2022/09/03 11:43:53;;;;;;;6.05;2.17;;;;;;;30.16;29.08;100946.91;5028288;28;20045;-68
2022/09/03 11:46:21;;;;;;;5.05;2.15;;;;;;;30.46;29.38;100935.69;5010644;28;20045;-66
2022/09/03 11:48:48;;;;;;;11.48;3.50;;;;;;;30.47;27.89;100934.56;5027773;28;20048;-68